Time;durP1;ratioP1;P1;durP2;ratioP2;P2;SDS_P1;SDS_P2;PMS_P1;PMS_P2;Temp;Humidity;BMP_temperature;BMP_pressure;BME280_temperature;BME280_humidity;BME280_pressure;Samples;Min_cycle;Max_cycle;Signal;HPM_P1;HPM_P2
2021/11/01 00:00:48;;;;;;;2.00;1.53;;;;;;;14.32;86.51;98872.63;4996166;28;20206;-79
2021/11/01 00:03:16;;;;;;;1.53;1.43;;;;;;;14.40;85.79;98894.00;4996172;28;20669;-79
2021/11/01 00:05:42;;;;;;;1.77;1.67;;;;;;;14.50;84.68;98929.28;4996641;28;20693;-79
2021/11/01 00:08:09;;;;;;;1.80;1.70;;;;;;;14.58;84.83;98947.25;4996509;28;20243;-79
2021/11/01 00:10:35;;;;;;;1.10;1.10;;;;;;;14.65;83.62;98966.97;4996718;28;20307;-80
2021/11/01 00:13:03;;;;;;;1.23;0.87;;;;;;;14.70;82.70;99006.06;4996601;28;20264;-79
2021/11/01 00:15:30;;;;;;;0.80;0.80;;;;;;;14.73;82.52;99016.41;4995428;28;20224;-80
2021/11/01 00:17:56;;;;;;;0.80;0.80;;;;;;;14.63;81.09;99046.78;4987323;28;20213;-80
2021/11/01 00:20:25;;;;;;;0.87;0.80;;;;;;;14.69;80.74;99065.66;4982989;28;20226;-80
2021/11/01 00:22:52;;;;;;;1.23;0.70;;;;;;;14.74;80.34;99094.25;4977211;28;20238;-79
2021/11/01 00:25:20;;;;;;;0.73;0.73;;;;;;;14.74;79.96;99110.03;4976632;28;20218;-80
2021/11/01 00:27:47;;;;;;;0.97;0.80;;;;;;;14.64;78.84;99151.72;4976419;28;20608;-80
2021/11/01 00:30:13;;;;;;;0.60;0.60;;;;;;;14.66;78.57;99164.78;4977171;28;20232;-79
2021/11/01 00:32:41;;;;;;;0.60;0.60;;;;;;;14.65;78.47;99165.72;4976578;28;20210;-80
2021/11/01 00:35:08;;;;;;;0.60;0.60;;;;;;;14.60;78.15;99171.22;4976805;28;20701;-80
2021/11/01 00:37:36;;;;;;;0.50;0.50;;;;;;;14.46;77.90;99173.75;4976750;28;20558;-79
2021/11/01 00:40:03;;;;;;;3.47;0.53;;;;;;;14.51;77.71;99179.59;4976309;28;20230;-79
2021/11/01 00:42:31;;;;;;;0.40;0.40;;;;;;;14.47;77.44;99188.56;4976306;28;20218;-80
2021/11/01 00:44:57;;;;;;;1.37;0.50;;;;;;;14.44;77.10;99205.31;4990703;28;20213;-80
2021/11/01 00:47:25;;;;;;;0.50;0.50;;;;;;;14.43;77.30;99208.03;4994493;28;20233;-80
2021/11/01 00:49:51;;;;;;;2.07;0.60;;;;;;;14.11;77.08;99228.97;4990688;28;20241;-80
2021/11/01 00:52:22;;;;;;;0.40;0.40;;;;;;;14.23;77.56;99209.97;4999849;28;20747;-80
2021/11/01 00:54:52;;;;;;;0.90;0.47;;;;;;;14.22;76.20;99252.88;4998726;28;20216;-80
2021/11/01 00:57:18;;;;;;;1.13;0.53;;;;;;;14.12;75.94;99272.69;4998759;28;20214;-80
2021/11/01 00:59:45;;;;;;;0.80;0.80;;;;;;;14.15;76.18;99255.91;4999206;28;20229;-80
2021/11/01 01:02:11;;;;;;;1.10;0.40;;;;;;;14.04;75.58;99265.22;5009256;28;20211;-77
2021/11/01 01:04:38;;;;;;;1.27;0.30;;;;;;;14.04;75.92;99251.25;5019851;28;20220;-77
2021/11/01 01:07:06;;;;;;;0.50;0.40;;;;;;;14.09;75.74;99247.47;5019904;28;20200;-77
2021/11/01 01:09:33;;;;;;;1.23;0.40;;;;;;;14.00;75.29;99261.03;5010150;28;20255;-79
2021/11/01 01:12:01;;;;;;;1.07;0.50;;;;;;;14.02;74.90;99272.31;5000695;28;20216;-79
2021/11/01 01:14:30;;;;;;;1.97;0.40;;;;;;;13.91;74.69;99306.09;5000809;28;20200;-78
2021/11/01 01:16:57;;;;;;;1.40;0.80;;;;;;;13.96;74.16;99293.63;5000203;28;20209;-80
2021/11/01 01:19:30;;;;;;;0.67;0.30;;;;;;;13.59;74.97;99284.13;4991024;28;20213;-79
2021/11/01 01:22:14;;;;;;;1.03;0.70;;;;;;;13.45;74.60;99292.69;4999759;28;20208;-79
2021/11/01 01:24:41;;;;;;;1.23;0.40;;;;;;;13.37;74.69;99268.63;5000081;28;20209;-79
2021/11/01 01:27:08;;;;;;;0.97;0.40;;;;;;;13.41;75.67;99262.31;4999291;28;20628;-78
2021/11/01 01:29:35;;;;;;;1.17;0.50;;;;;;;13.20;75.69;99238.84;4998875;28;20236;-79
2021/11/01 01:32:02;;;;;;;3.70;1.37;;;;;;;13.22;76.38;99212.53;4998224;28;20262;-79
2021/11/01 01:34:28;;;;;;;2.20;1.07;;;;;;;13.29;76.40;99204.31;4993692;28;20203;-78
2021/11/01 01:36:55;;;;;;;2.70;0.83;;;;;;;13.29;75.94;99204.31;4979298;28;20688;-79
2021/11/01 01:39:21;;;;;;;1.20;0.80;;;;;;;13.33;76.74;99217.28;4979511;28;20222;-79
2021/11/01 01:41:48;;;;;;;3.17;0.97;;;;;;;13.42;76.00;99228.16;4979934;28;20261;-80
2021/11/01 01:44:16;;;;;;;1.47;0.70;;;;;;;13.51;76.13;99245.19;4979763;28;20210;-79
2021/11/01 01:46:43;;;;;;;1.00;0.53;;;;;;;13.54;75.61;99247.66;4983809;28;20340;-80
2021/11/01 01:49:10;;;;;;;0.97;0.50;;;;;;;13.62;76.20;99252.53;4990069;28;20237;-79
2021/11/01 01:51:38;;;;;;;1.40;0.50;;;;;;;13.67;76.05;99255.75;4997274;28;20266;-80
2021/11/01 01:54:04;;;;;;;0.60;0.50;;;;;;;13.66;75.44;99262.78;4997522;28;20741;-80
2021/11/01 01:56:31;;;;;;;1.43;0.50;;;;;;;13.73;75.56;99267.72;4996006;28;20205;-79
2021/11/01 01:59:13;;;;;;;2.23;0.87;;;;;;;13.69;75.04;99280.97;4995104;28;20255;-80
2021/11/01 02:01:41;;;;;;;2.43;0.80;;;;;;;13.56;74.88;99260.69;5000963;28;20209;-79
2021/11/01 02:04:08;;;;;;;2.43;0.80;;;;;;;13.65;74.82;99260.22;5000872;28;20237;-80
2021/11/01 02:06:47;;;;;;;1.87;0.90;;;;;;;13.48;74.53;99269.78;5001145;28;20211;-80
2021/11/01 02:09:19;;;;;;;1.93;0.57;;;;;;;13.50;74.95;99265.31;4999504;28;20276;-80
2021/11/01 02:11:51;;;;;;;3.13;1.10;;;;;;;13.52;75.07;99252.16;4999218;28;20236;-78
2021/11/01 02:14:21;;;;;;;4.97;1.10;;;;;;;13.43;75.19;99258.69;4981173;28;20209;-79
2021/11/01 02:16:50;;;;;;;4.03;1.30;;;;;;;13.42;75.34;99241.28;4997229;28;20206;-79
2021/11/01 02:19:20;;;;;;;4.77;1.47;;;;;;;13.33;75.54;99243.50;4990896;28;20311;-80
2021/11/01 02:21:50;;;;;;;3.50;0.77;;;;;;;13.31;75.91;99231.31;5000017;28;20667;-79
2021/11/01 02:24:24;;;;;;;3.53;1.00;;;;;;;13.29;76.02;99227.03;5000190;28;20219;-79
2021/11/01 02:26:53;;;;;;;5.40;1.40;;;;;;;13.16;76.72;99205.84;4999055;28;20316;-78
2021/11/01 02:29:23;;;;;;;6.10;1.20;;;;;;;13.17;76.68;99180.50;4984374;28;20299;-80
2021/11/01 02:31:50;;;;;;;3.37;1.00;;;;;;;13.15;76.34;99184.97;4999548;28;20582;-79
2021/11/01 02:34:17;;;;;;;3.90;1.20;;;;;;;13.03;76.53;99178.56;4999887;28;20530;-80
2021/11/01 02:36:44;;;;;;;5.23;1.40;;;;;;;13.07;76.83;99180.94;4999826;28;20218;-80
2021/11/01 02:39:11;;;;;;;5.93;1.30;;;;;;;13.15;76.67;99195.44;4998906;28;20490;-80
2021/11/01 02:41:37;;;;;;;3.97;1.13;;;;;;;13.20;76.44;99191.66;4999945;28;20209;-78
2021/11/01 02:44:07;;;;;;;3.83;1.27;;;;;;;13.16;76.59;99210.22;4999093;28;20206;-78
2021/11/01 02:46:34;;;;;;;3.73;1.13;;;;;;;13.19;76.36;99210.91;4998630;28;20209;-79
2021/11/01 02:49:01;;;;;;;6.90;1.37;;;;;;;13.17;76.77;99210.16;4990008;28;20241;-78
2021/11/01 02:51:30;;;;;;;5.40;1.33;;;;;;;13.11;77.05;99224.41;4998926;28;20213;-78
2021/11/01 02:53:58;;;;;;;5.87;1.47;;;;;;;13.12;76.63;99220.00;4998967;28;20758;-79
2021/11/01 02:56:26;;;;;;;3.77;1.10;;;;;;;13.04;76.99;99219.53;4991696;28;20264;-78
2021/11/01 02:58:53;;;;;;;3.10;1.20;;;;;;;12.92;77.13;99205.25;4978732;28;20272;-79
2021/11/01 03:01:22;;;;;;;2.60;1.00;;;;;;;12.73;77.96;99189.59;4985349;28;20223;-80
2021/11/01 03:03:49;;;;;;;3.47;1.27;;;;;;;12.61;78.71;99154.38;4999219;28;20271;-80
2021/11/01 03:06:18;;;;;;;2.70;0.90;;;;;;;12.69;78.77;99128.66;4998822;28;20212;-80
2021/11/01 03:08:46;;;;;;;4.50;1.23;;;;;;;12.72;78.49;99151.22;4998226;28;20236;-80
2021/11/01 03:11:13;;;;;;;6.43;1.20;;;;;;;12.76;77.91;99175.50;4997355;28;20236;-80
2021/11/01 03:13:39;;;;;;;3.03;1.03;;;;;;;12.72;78.27;99166.94;4999474;28;20205;-80
2021/11/01 03:16:07;;;;;;;3.47;1.30;;;;;;;12.75;77.94;99186.91;4998719;28;20637;-80
2021/11/01 03:18:49;;;;;;;5.53;1.70;;;;;;;12.77;77.67;99195.53;4991752;28;20292;-80
2021/11/01 03:21:19;;;;;;;5.40;1.40;;;;;;;12.77;78.10;99187.69;4979436;28;20225;-79
2021/11/01 03:23:48;;;;;;;4.80;1.13;;;;;;;12.75;78.10;99176.44;4978823;28;20212;-80
2021/11/01 03:26:20;;;;;;;5.40;1.50;;;;;;;12.70;78.28;99202.81;4986157;28;20211;-80
2021/11/01 03:28:50;;;;;;;4.37;1.50;;;;;;;12.68;77.86;99217.75;4998178;28;20689;-79
2021/11/01 03:31:18;;;;;;;6.23;1.17;;;;;;;12.68;77.73;99217.75;4998819;28;20243;-80
2021/11/01 03:33:46;;;;;;;4.80;1.43;;;;;;;12.68;77.81;99215.97;4998229;28;20228;-80
2021/11/01 03:36:13;;;;;;;3.93;1.67;;;;;;;12.62;78.09;99218.03;4998742;28;20209;-80
2021/11/01 03:38:41;;;;;;;6.33;1.57;;;;;;;12.63;78.29;99207.50;4998099;28;20224;-80
2021/11/01 03:41:10;;;;;;;7.30;1.77;;;;;;;12.65;78.15;99205.66;4998110;28;20200;-79
2021/11/01 03:43:41;;;;;;;5.60;1.27;;;;;;;12.64;77.88;99210.97;4996076;28;20306;-80
2021/11/01 03:46:08;;;;;;;4.80;1.27;;;;;;;12.65;78.22;99210.06;4979100;28;20212;-80
2021/11/01 03:48:37;;;;;;;8.03;1.57;;;;;;;12.64;77.71;99198.72;4990537;28;20236;-79
2021/11/01 03:51:08;;;;;;;7.77;1.80;;;;;;;12.65;77.88;99203.03;4996970;28;20204;-80
2021/11/01 03:53:36;;;;;;;5.80;2.00;;;;;;;12.67;77.01;99226.53;4998486;28;20224;-78
2021/11/01 03:56:03;;;;;;;8.07;2.00;;;;;;;12.61;77.41;99224.22;4996800;28;20247;-80
2021/11/01 03:58:30;;;;;;;4.30;1.27;;;;;;;12.61;77.23;99226.84;4997203;28;20215;-79
2021/11/01 04:00:57;;;;;;;8.40;1.77;;;;;;;12.62;77.33;99233.75;4998186;28;20235;-79
2021/11/01 04:03:24;;;;;;;7.07;1.47;;;;;;;12.62;77.05;99236.38;4997364;28;20208;-80
2021/11/01 04:05:55;;;;;;;5.70;2.30;;;;;;;12.55;76.89;99248.91;4997324;28;20268;-79
2021/11/01 04:08:23;;;;;;;7.47;1.70;;;;;;;12.39;76.98;99240.91;4997240;28;20217;-80
2021/11/01 04:10:49;;;;;;;5.73;1.73;;;;;;;12.39;77.65;99234.81;4997367;28;20211;-80
2021/11/01 04:13:16;;;;;;;6.73;1.60;;;;;;;12.44;76.97;99236.28;4997455;28;20335;-80
2021/11/01 04:15:45;;;;;;;7.40;2.33;;;;;;;12.40;76.82;99266.16;4997934;28;20219;-80
2021/11/01 04:18:16;;;;;;;7.90;1.60;;;;;;;12.49;76.67;99264.91;4993386;28;20209;-80
2021/11/01 04:20:51;;;;;;;8.17;2.10;;;;;;;12.42;75.93;99280.00;4993556;28;20213;-80
2021/11/01 04:23:19;;;;;;;6.20;1.57;;;;;;;12.31;76.49;99277.06;5001047;28;20218;-79
2021/11/01 04:25:47;;;;;;;6.33;1.80;;;;;;;12.28;77.15;99264.94;5000967;28;20200;-79
2021/11/01 04:28:13;;;;;;;6.27;1.30;;;;;;;12.38;77.15;99265.38;5000385;28;20212;-80
2021/11/01 04:30:41;;;;;;;6.87;1.90;;;;;;;12.45;76.89;99253.72;4982482;28;20593;-80
2021/11/01 04:33:12;;;;;;;7.10;1.90;;;;;;;12.50;77.13;99270.03;4981970;28;20563;-80
2021/11/01 04:35:39;;;;;;;4.60;1.70;;;;;;;12.50;76.70;99280.50;4982535;28;20241;-79
2021/11/01 04:38:15;;;;;;;5.83;1.30;;;;;;;12.55;76.29;99284.69;4982040;28;20206;-80
2021/11/01 04:40:55;;;;;;;6.13;2.03;;;;;;;12.55;76.03;99303.88;4982300;28;20263;-80
2021/11/01 04:43:58;;;;;;;7.20;2.03;;;;;;;12.51;76.47;99294.47;4982865;28;20663;-80
2021/11/01 04:54:37;;;;;;;4.97;1.50;;;;;;;12.51;76.45;99260.44;5001665;28;20259;-80
2021/11/01 04:57:04;;;;;;;5.17;1.70;;;;;;;12.50;77.16;99243.03;5001280;28;20212;-80
2021/11/01 04:59:33;;;;;;;8.37;1.60;;;;;;;12.47;76.94;99244.03;5001416;28;20224;-80
2021/11/01 05:02:00;;;;;;;7.50;1.80;;;;;;;12.41;76.58;99275.72;5001518;28;20208;-80
2021/11/01 05:04:29;;;;;;;3.60;1.40;;;;;;;12.46;76.39;99275.50;5002433;28;20299;-80
2021/11/01 05:06:59;;;;;;;5.77;1.87;;;;;;;12.46;76.68;99271.09;5000649;28;20677;-80
2021/11/01 05:09:28;;;;;;;4.90;1.43;;;;;;;12.45;75.84;99279.03;5000732;28;20664;-80
2021/11/01 05:12:05;;;;;;;4.53;1.40;;;;;;;12.45;75.59;99295.59;5000985;28;20663;-80
2021/11/01 05:14:37;;;;;;;6.40;1.63;;;;;;;12.45;75.41;99282.50;5000061;28;20300;-80
2021/11/01 05:19:50;;;;;;;5.80;1.47;;;;;;;12.36;74.78;99293.38;4989199;28;20279;-80
2021/11/01 05:22:26;;;;;;;7.00;1.63;;;;;;;12.35;74.79;99320.47;4998097;28;20209;-80
2021/11/01 05:24:56;;;;;;;5.40;1.60;;;;;;;12.39;74.96;99311.56;4983201;28;20655;-80
2021/11/01 05:27:36;;;;;;;5.67;1.20;;;;;;;12.43;74.97;99315.75;4979490;28;20209;-80
2021/11/01 05:30:08;;;;;;;5.57;1.40;;;;;;;12.44;75.49;99306.13;4979166;28;20235;-79
2021/11/01 05:32:38;;;;;;;6.07;1.47;;;;;;;12.43;74.44;99348.94;4980565;28;20307;-79
2021/11/01 05:35:05;;;;;;;5.80;1.40;;;;;;;12.44;74.96;99325.28;4979052;28;20213;-78
2021/11/01 05:37:32;;;;;;;4.23;1.77;;;;;;;12.43;74.84;99310.50;4978936;28;20690;-80
2021/11/01 05:39:58;;;;;;;3.90;1.20;;;;;;;12.43;75.14;99310.50;4978014;28;20638;-79
2021/11/01 05:42:24;;;;;;;5.90;1.27;;;;;;;12.42;75.36;99292.25;4979764;28;20205;-80
2021/11/01 05:44:51;;;;;;;5.03;1.73;;;;;;;12.39;75.65;99289.75;4982650;28;20236;-79
2021/11/01 05:47:19;;;;;;;10.53;1.93;;;;;;;12.26;74.24;99331.34;4985202;28;22130;-79
2021/11/01 05:49:45;;;;;;;3.60;1.17;;;;;;;12.25;75.52;99311.31;5040312;22;20288;-81
2021/11/01 05:52:18;;;;;;;3.17;1.30;;;;;;;12.27;75.85;99288.56;5045418;28;20211;-80
2021/11/01 05:54:44;;;;;;;3.77;1.23;;;;;;;12.24;75.04;99305.22;5037529;28;20210;-82
2021/11/01 05:57:15;;;;;;;3.03;1.30;;;;;;;12.22;75.04;99312.31;5037773;28;20254;-82
2021/11/01 06:00:00;;;;;;;5.20;1.30;;;;;;;12.29;74.45;99329.44;5028926;28;20228;-81
2021/11/01 06:02:39;;;;;;;6.87;1.90;;;;;;;12.25;74.03;99335.72;5017455;28;20188;-80
2021/11/01 06:05:14;;;;;;;6.40;1.60;;;;;;;12.25;73.47;99355.78;5018134;28;20200;-80
2021/11/01 06:07:46;;;;;;;5.37;1.50;;;;;;;12.25;73.85;99343.59;5017807;28;20191;-82
2021/11/01 06:10:23;;;;;;;3.33;0.90;;;;;;;12.20;73.86;99360.38;5017358;28;20227;-81
2021/11/01 06:15:34;;;;;;;6.33;1.40;;;;;;;12.18;73.41;99407.53;5026722;28;20216;-83
2021/11/01 06:18:02;;;;;;;8.90;1.20;;;;;;;12.22;73.39;99403.88;5028254;28;20205;-82
2021/11/01 06:20:28;;;;;;;4.87;1.20;;;;;;;12.20;73.83;99413.56;5030327;28;20214;-82
2021/11/01 06:22:55;;;;;;;6.20;1.60;;;;;;;12.18;73.34;99419.78;5028803;28;20199;-80
2021/11/01 06:25:21;;;;;;;6.23;1.50;;;;;;;12.16;73.42;99427.69;5025822;28;20252;-82
2021/11/01 06:27:48;;;;;;;5.50;1.77;;;;;;;12.14;73.58;99431.28;5027532;28;20203;-80
2021/11/01 06:30:22;;;;;;;5.73;1.53;;;;;;;12.13;73.14;99446.13;5027179;28;20227;-84
2021/11/01 06:32:59;;;;;;;6.13;1.20;;;;;;;12.14;72.63;99436.50;5028634;28;20259;-82
2021/11/01 06:55:03;;;;;;;4.73;1.67;;;;;;;12.18;71.74;99483.41;5149409;27;20203;-82
2021/11/01 06:57:38;;;;;;;4.57;1.63;;;;;;;12.19;72.48;99461.56;5144544;27;20194;-82
2021/11/01 07:16:55;;;;;;;4.10;1.00;;;;;;;12.20;72.91;99463.25;5148870;27;20195;-82
2021/11/01 07:19:29;;;;;;;3.97;1.10;;;;;;;12.22;73.16;99448.34;5141621;27;20206;-81
2021/11/01 07:22:22;;;;;;;4.17;0.97;;;;;;;12.25;73.66;99437.78;5154029;27;20572;-82
2021/11/01 07:25:17;;;;;;;3.43;1.00;;;;;;;12.19;73.99;99401.41;5156824;27;20205;-82
2021/11/01 07:38:09;;;;;;;5.27;1.20;;;;;;;12.06;74.25;99419.38;5110193;27;20234;-83
2021/11/01 08:20:39;;;;;;;3.97;1.40;;;;;;;12.15;74.89;99414.66;5127097;27;20222;-81
2021/11/01 08:20:54;;;;;;;3.77;1.00;;;;;;;12.00;74.88;99416.16;5123111;27;20591;-79
2021/11/01 08:37:33;;;;;;;4.47;1.63;;;;;;;12.10;75.50;99400.00;5089542;27;20562;-79
2021/11/01 08:40:15;;;;;;;5.80;1.67;;;;;;;12.20;75.69;99382.16;5078827;28;20224;-80
2021/11/01 08:42:56;;;;;;;6.23;1.40;;;;;;;12.23;75.73;99394.25;5060473;28;20241;-79
2021/11/01 08:45:42;;;;;;;3.40;1.20;;;;;;;12.31;75.06;99385.19;5058869;28;20624;-79
2021/11/01 08:51:32;;;;;;;3.77;1.23;;;;;;;12.24;74.74;99420.34;5053471;28;20213;-78
2021/11/01 09:11:27;;;;;;;2.57;0.80;;;;;;;12.19;73.86;99474.66;5041623;28;20219;-80
2021/11/01 09:25:10;;;;;;;3.80;1.20;;;;;;;12.34;73.14;99499.31;5061236;28;20694;-79
2021/11/01 09:27:40;;;;;;;3.90;1.10;;;;;;;12.42;72.56;99504.25;5061523;28;20207;-79
2021/11/01 09:30:24;;;;;;;3.38;1.08;;;;;;;12.45;72.37;99515.44;5062243;28;20447;-78
2021/11/01 09:41:11;;;;;;;3.00;1.10;;;;;;;12.61;71.86;99531.38;5061626;28;20218;-79
2021/11/01 09:43:39;;;;;;;4.83;1.67;;;;;;;12.61;71.36;99551.47;5073441;28;20207;-79
2021/11/01 09:46:10;;;;;;;2.10;0.90;;;;;;;12.50;71.31;99573.69;5072933;28;20202;-78
2021/11/01 09:48:42;;;;;;;2.07;0.73;;;;;;;12.58;70.61;99573.38;5058786;28;20290;-78
2021/11/01 09:51:09;;;;;;;2.27;0.90;;;;;;;12.55;70.44;99578.75;5056416;28;20223;-78
2021/11/01 09:53:41;;;;;;;4.10;1.10;;;;;;;12.66;70.79;99559.97;5053367;28;20198;-79
2021/11/01 09:56:19;;;;;;;3.83;1.10;;;;;;;12.65;69.05;99611.47;5047935;28;20226;-77
2021/11/01 10:01:33;;;;;;;1.97;0.70;;;;;;;12.81;68.51;99655.38;5047812;28;20345;-77
2021/11/01 10:04:00;;;;;;;4.97;0.93;;;;;;;12.85;68.30;99649.94;5047836;28;20194;-80
2021/11/01 10:06:28;;;;;;;1.47;0.80;;;;;;;12.86;67.60;99669.13;5046780;28;20207;-79
2021/11/01 10:08:56;;;;;;;3.33;0.80;;;;;;;12.91;67.02;99686.34;5048222;28;20206;-79
2021/11/01 10:11:26;;;;;;;2.80;0.97;;;;;;;13.03;67.06;99690.25;5053228;28;20310;-80
2021/11/01 10:13:59;;;;;;;2.70;1.23;;;;;;;12.97;66.22;99732.41;5049941;28;20209;-79
2021/11/01 10:19:14;;;;;;;4.57;0.93;;;;;;;13.04;66.48;99746.13;5055787;28;20209;-77
2021/11/01 10:21:51;;;;;;;8.20;1.10;;;;;;;13.17;65.93;99738.63;5054023;28;20196;-81
2021/11/01 10:24:24;;;;;;;1.98;1.10;;;;;;;13.18;65.96;99732.44;5046621;28;20428;-78
2021/11/01 10:26:51;;;;;;;2.10;0.77;;;;;;;13.18;64.88;99780.50;5050237;28;20195;-77
2021/11/01 10:29:19;;;;;;;2.90;0.83;;;;;;;13.36;65.64;99771.06;5048650;28;20675;-78
2021/11/01 10:31:47;;;;;;;5.10;1.10;;;;;;;13.33;64.45;99778.19;5048077;28;20725;-77
2021/11/01 10:34:15;;;;;;;2.33;0.90;;;;;;;13.34;65.83;99758.91;5048027;28;20234;-80
2021/11/01 10:36:43;;;;;;;3.23;1.00;;;;;;;13.29;64.19;99793.16;5047450;28;20225;-79
2021/11/01 10:39:13;;;;;;;2.17;0.83;;;;;;;13.19;63.33;99826.75;5049667;28;20227;-80
2021/11/01 10:41:48;;;;;;;3.07;0.80;;;;;;;13.20;63.21;99832.81;5050013;28;20203;-80
2021/11/01 10:44:41;;;;;;;3.17;0.63;;;;;;;13.21;64.24;99822.28;5047091;28;20241;-79
2021/11/01 10:47:31;;;;;;;2.87;0.60;;;;;;;13.21;63.94;99818.81;5050089;28;20195;-79
2021/11/01 10:58:41;;;;;;;2.83;0.73;;;;;;;13.28;63.47;99839.50;5048134;28;20210;-80
2021/11/01 11:12:16;;;;;;;4.20;1.27;;;;;;;13.26;64.27;99798.50;5047310;28;20237;-79
2021/11/01 11:14:46;;;;;;;4.70;0.70;;;;;;;13.28;64.21;99788.84;5044897;28;20202;-78
2021/11/01 11:17:27;;;;;;;2.07;0.80;;;;;;;13.36;62.75;99809.50;5041859;28;20222;-78
2021/11/01 11:20:09;;;;;;;3.30;0.80;;;;;;;13.39;62.98;99815.50;5050194;28;20282;-78
2021/11/01 11:23:12;;;;;;;1.33;0.50;;;;;;;13.31;61.91;99856.88;5044770;28;20198;-80
2021/11/01 11:28:46;;;;;;;2.23;0.60;;;;;;;13.42;62.98;99840.72;5043716;28;20590;-79
2021/11/01 11:31:37;;;;;;;2.97;0.80;;;;;;;13.61;62.27;99843.44;5044267;28;20634;-80
2021/11/01 11:42:45;;;;;;;2.33;0.70;;;;;;;13.70;60.94;99927.88;5042274;28;20202;-80
2021/11/01 11:48:10;;;;;;;2.13;0.83;;;;;;;13.75;60.60;99935.53;5046707;28;20306;-79
2021/11/01 11:50:39;;;;;;;1.50;0.80;;;;;;;13.93;60.06;99940.97;5057240;22;20589;-79
2021/11/01 11:53:13;;;;;;;1.80;0.70;;;;;;;13.88;59.29;99981.38;5024472;28;20218;-78
2021/11/01 11:55:40;;;;;;;2.50;1.20;;;;;;;13.76;59.13;100020.34;5021687;28;20716;-79
2021/11/01 11:58:10;;;;;;;3.93;0.63;;;;;;;13.48;58.73;100005.69;5023559;28;20229;-78
2021/11/01 12:00:37;;;;;;;2.87;0.70;;;;;;;13.29;59.92;100001.09;5024549;28;20232;-78
2021/11/01 12:03:15;;;;;;;2.37;1.10;;;;;;;13.41;59.52;99991.09;5020390;28;20204;-78
2021/11/01 12:05:48;;;;;;;0.97;0.50;;;;;;;13.51;59.73;99979.31;5022465;28;20205;-78
2021/11/01 12:08:21;;;;;;;2.63;0.77;;;;;;;13.64;59.48;99962.22;5023148;28;20214;-79
2021/11/01 12:14:12;;;;;;;2.43;1.07;;;;;;;13.46;59.31;99984.75;5025972;28;20579;-78
2021/11/01 12:19:24;;;;;;;2.13;0.70;;;;;;;13.53;59.50;99989.75;5021634;28;20217;-79
2021/11/01 12:21:56;;;;;;;1.63;0.50;;;;;;;13.31;59.28;100001.06;5023839;28;20673;-79
2021/11/01 12:24:24;;;;;;;2.20;0.70;;;;;;;13.24;58.93;100000.41;5024171;28;20203;-78
2021/11/01 12:26:59;;;;;;;1.43;0.63;;;;;;;13.24;60.19;99960.22;5026563;28;20198;-79
2021/11/01 12:29:26;;;;;;;1.90;0.80;;;;;;;13.32;60.89;99939.88;5021790;28;20287;-79
2021/11/01 12:32:01;;;;;;;1.97;0.70;;;;;;;13.17;60.72;99954.34;5026101;28;20202;-80
2021/11/01 12:34:28;;;;;;;0.90;0.70;;;;;;;13.22;60.53;99938.44;5024330;28;20270;-79
2021/11/01 12:37:01;;;;;;;2.53;0.90;;;;;;;13.28;61.41;99896.31;5024394;28;20215;-78
2021/11/01 12:39:34;;;;;;;3.20;1.00;;;;;;;13.27;60.94;99905.91;5021436;28;20199;-79
2021/11/01 12:42:22;;;;;;;3.03;0.90;;;;;;;13.23;60.17;99948.88;5022228;28;20195;-83
2021/11/01 12:58:42;;;;;;;3.13;0.73;;;;;;;13.47;59.04;99996.09;5021466;28;20238;-83
2021/11/01 13:01:10;;;;;;;2.70;1.00;;;;;;;13.43;59.55;99984.00;5020174;28;20229;-80
2021/11/01 13:03:37;;;;;;;3.33;0.70;;;;;;;13.56;59.80;99950.28;5022487;28;20254;-80
2021/11/01 13:06:07;;;;;;;1.67;0.80;;;;;;;13.59;58.80;99986.91;5018935;28;20836;-81
2021/11/01 13:08:45;;;;;;;3.40;1.50;;;;;;;13.55;59.02;99980.91;5019725;28;20231;-82
2021/11/01 13:11:32;;;;;;;1.37;0.70;;;;;;;13.59;58.87;100010.50;5019097;28;20227;-82
2021/11/01 13:19:25;;;;;;;2.93;0.80;;;;;;;13.55;58.44;100008.91;5022421;28;20201;-81
2021/11/01 13:21:57;;;;;;;3.23;0.90;;;;;;;13.53;58.70;99995.00;5022499;28;20261;-82
2021/11/01 13:24:37;;;;;;;2.27;0.87;;;;;;;13.58;58.22;100004.41;5026060;28;20246;-82
2021/11/01 13:27:25;;;;;;;4.63;1.70;;;;;;;13.62;59.14;99990.25;5026073;28;20208;-82
2021/11/01 13:38:06;;;;;;;4.40;0.90;;;;;;;13.57;59.07;99971.22;5021419;28;20898;-82
2021/11/01 13:40:42;;;;;;;2.27;0.80;;;;;;;13.66;59.04;99980.50;5021630;28;20224;-82
2021/11/01 13:43:08;;;;;;;5.17;0.90;;;;;;;13.66;57.68;99993.63;5018886;28;20415;-82
2021/11/01 13:45:35;;;;;;;1.60;0.57;;;;;;;13.79;58.22;99992.22;5023457;28;20257;-81
2021/11/01 13:48:02;;;;;;;2.20;0.80;;;;;;;13.77;58.14;100040.41;5023374;28;20207;-81
2021/11/01 13:50:36;;;;;;;3.53;0.90;;;;;;;13.68;58.14;100015.41;5017992;28;20232;-82
2021/11/01 13:53:08;;;;;;;1.73;0.90;;;;;;;13.75;58.45;100005.53;5021428;28;20224;-81
2021/11/01 13:55:43;;;;;;;0.97;0.53;;;;;;;13.67;58.22;100024.16;5022310;28;20194;-81
2021/11/01 13:58:23;;;;;;;2.50;0.90;;;;;;;13.53;58.03;100029.94;5017686;28;20988;-81
2021/11/01 14:00:58;;;;;;;1.67;0.77;;;;;;;13.41;58.84;100002.41;5018037;28;20251;-82
2021/11/01 14:03:42;;;;;;;3.03;0.50;;;;;;;13.29;58.94;100002.84;5020329;28;20668;-82
2021/11/01 14:11:53;;;;;;;6.73;0.80;;;;;;;13.22;58.43;100011.84;5020365;28;20195;-82
2021/11/01 14:14:32;;;;;;;1.63;0.70;;;;;;;13.26;58.57;100008.19;5021278;28;20215;-81
2021/11/01 14:17:05;;;;;;;1.43;0.60;;;;;;;13.33;58.51;99990.53;5021104;28;20207;-81
2021/11/01 14:19:53;;;;;;;3.47;0.97;;;;;;;13.34;59.35;99977.38;5019384;28;20234;-81
2021/11/01 14:28:02;;;;;;;1.23;0.47;;;;;;;13.27;58.53;99995.03;5025461;28;20268;-82
2021/11/01 14:30:54;;;;;;;1.07;0.70;;;;;;;13.35;59.54;99954.63;5025540;28;20223;-82
2021/11/01 14:33:53;;;;;;;2.30;0.60;;;;;;;13.24;59.58;99957.59;5023588;28;20271;-82
2021/11/01 14:36:50;;;;;;;2.90;0.67;;;;;;;13.41;60.16;99957.84;5021095;28;20205;-83
2021/11/01 14:56:36;;;;;;;2.87;0.90;;;;;;;13.70;62.97;99812.47;5015753;28;20256;-82
2021/11/01 15:10:16;;;;;;;2.53;1.00;;;;;;;13.61;65.85;99713.19;5016832;28;20242;-82
2021/11/01 15:18:32;;;;;;;2.03;0.73;;;;;;;13.46;65.25;99732.22;5019231;28;20277;-82
2021/11/01 15:21:09;;;;;;;3.17;0.90;;;;;;;13.41;65.31;99735.00;5017501;28;20267;-82
2021/11/01 15:29:18;;;;;;;1.43;0.60;;;;;;;13.38;64.93;99761.38;5008565;28;20208;-82
2021/11/01 15:37:45;;;;;;;1.47;0.80;;;;;;;13.34;63.88;99795.63;5011155;28;20217;-82
2021/11/01 15:40:33;;;;;;;3.53;0.87;;;;;;;13.39;64.25;99778.78;5011230;28;20578;-82
2021/11/01 16:18:51;;;;;;;2.60;0.50;;;;;;;12.84;66.95;99718.09;5017839;28;20216;-80
2021/11/01 16:21:19;;;;;;;1.50;0.60;;;;;;;12.83;67.21;99709.41;5016502;28;20281;-78
2021/11/01 16:23:45;;;;;;;2.47;0.77;;;;;;;12.81;67.50;99705.16;5014510;28;20727;-79
2021/11/01 16:26:21;;;;;;;1.60;0.80;;;;;;;12.76;67.08;99707.06;5013111;28;20214;-78
2021/11/01 16:28:52;;;;;;;2.40;0.70;;;;;;;12.70;66.82;99719.53;5011606;28;20214;-78
2021/11/01 16:31:28;;;;;;;2.40;0.70;;;;;;;12.69;67.03;99712.56;5010913;28;20230;-77
2021/11/01 16:34:00;;;;;;;3.97;0.80;;;;;;;12.66;67.27;99712.66;5012571;28;20211;-78
2021/11/01 16:36:42;;;;;;;2.23;0.80;;;;;;;12.60;67.85;99691.13;5012301;28;20207;-79
2021/11/01 16:39:11;;;;;;;2.07;0.70;;;;;;;12.52;67.75;99676.56;5012498;28;20289;-78
2021/11/01 16:41:41;;;;;;;2.80;1.07;;;;;;;12.45;68.17;99662.03;5012560;28;20299;-78
2021/11/01 16:44:15;;;;;;;2.17;0.90;;;;;;;12.30;68.45;99665.22;5014312;28;20284;-78
2021/11/01 16:46:42;;;;;;;3.00;0.83;;;;;;;12.32;68.80;99651.16;5013672;28;20331;-79
2021/11/01 16:49:09;;;;;;;2.33;0.70;;;;;;;12.24;68.51;99649.75;5012286;28;20224;-79
2021/11/01 16:51:36;;;;;;;3.03;1.07;;;;;;;12.17;68.84;99630.84;5013713;28;20236;-79
2021/11/01 16:54:04;;;;;;;3.67;0.90;;;;;;;12.10;69.61;99626.75;5013752;28;20219;-77
2021/11/01 16:56:56;;;;;;;2.50;0.90;;;;;;;12.04;69.68;99606.06;5013305;28;20738;-79
2021/11/01 16:59:32;;;;;;;2.40;0.70;;;;;;;12.02;69.79;99589.56;5018094;28;20199;-78
2021/11/01 17:02:09;;;;;;;4.47;1.00;;;;;;;11.99;69.85;99594.91;5005463;28;20254;-77
2021/11/01 17:04:39;;;;;;;2.10;1.10;;;;;;;11.93;69.78;99588.16;5007356;28;20207;-78
2021/11/01 17:07:12;;;;;;;5.73;1.33;;;;;;;11.78;70.13;99589.56;5012993;28;20218;-78
2021/11/01 17:23:36;;;;;;;3.73;1.07;;;;;;;11.56;71.07;99523.31;4993050;28;20266;-78
2021/11/01 17:26:09;;;;;;;2.13;0.80;;;;;;;11.44;71.94;99535.09;5001277;28;20297;-77